Time;durP1;ratioP1;P1;durP2;ratioP2;P2;SDS_P1;SDS_P2;PMS_P1;PMS_P2;Temp;Humidity;BMP_temperature;BMP_pressure;BME280_temperature;BME280_humidity;BME280_pressure;Samples;Min_cycle;Max_cycle;Signal;HPM_P1;HPM_P2
2023/12/02 00:02:23;;;;;;;4.03;3.73;;;;;;;;;;6247749;23;20197;-86
2023/12/02 00:04:51;;;;;;;15.33;10.10;;;;;;;;;;6249354;23;20173;-86
2023/12/02 00:07:23;;;;;;;16.03;9.83;;;;;;;;;;6248745;22;20166;-86
2023/12/02 00:09:53;;;;;;;19.87;9.47;;;;;;;;;;6247778;23;20240;-87
2023/12/02 00:12:21;;;;;;;16.10;11.27;;;;;;;;;;6248486;23;20170;-86
2023/12/02 00:14:50;;;;;;;6.60;6.03;;;;;;;;;;6249817;22;20165;-87
2023/12/02 00:17:19;;;;;;;19.17;12.27;;;;;;;;;;6248918;23;20182;-86
2023/12/02 00:19:47;;;;;;;24.40;13.40;;;;;;;;;;6248364;22;20198;-86
2023/12/02 00:22:15;;;;;;;22.63;12.90;;;;;;;;;;6248760;22;20177;-86
2023/12/02 00:24:44;;;;;;;22.40;13.37;;;;;;;;;;6249895;22;20176;-86
2023/12/02 00:27:15;;;;;;;12.73;8.67;;;;;;;;;;6249129;22;20174;-86
2023/12/02 00:29:44;;;;;;;23.47;15.53;;;;;;;;;;6247731;23;20197;-86
2023/12/02 00:32:12;;;;;;;27.00;18.87;;;;;;;;;;6247845;22;20196;-86
2023/12/02 00:34:55;;;;;;;15.93;10.47;;;;;;;;;;6248138;22;20419;-86
2023/12/02 00:37:23;;;;;;;4.57;2.60;;;;;;;;;;6248396;22;20181;-86
2023/12/02 00:39:52;;;;;;;14.77;11.83;;;;;;;;;;6244709;23;20201;-86
2023/12/02 00:42:22;;;;;;;27.77;14.97;;;;;;;;;;6247721;22;20167;-87
2023/12/02 00:44:50;;;;;;;30.47;19.07;;;;;;;;;;6248435;22;20202;-86
2023/12/02 00:47:19;;;;;;;16.40;10.43;;;;;;;;;;6248398;22;20173;-86
2023/12/02 00:49:47;;;;;;;15.13;7.00;;;;;;;;;;6247953;22;20182;-86
2023/12/02 00:52:16;;;;;;;27.43;16.07;;;;;;;;;;6248101;23;20204;-87
2023/12/02 00:54:44;;;;;;;20.83;14.70;;;;;;;;;;6248373;22;20185;-86
2023/12/02 00:57:13;;;;;;;3.53;3.33;;;;;;;;;;6248412;22;20174;-86
2023/12/02 00:59:42;;;;;;;24.27;14.30;;;;;;;;;;6247521;23;20219;-86
2023/12/02 01:02:11;;;;;;;2.30;2.17;;;;;;;;;;6248173;22;20176;-86
2023/12/02 01:04:40;;;;;;;11.60;7.97;;;;;;;;;;6248529;23;20178;-86
2023/12/02 01:07:08;;;;;;;16.03;8.93;;;;;;;;;;6248989;23;20173;-86
2023/12/02 01:09:37;;;;;;;26.53;17.27;;;;;;;;;;6247820;23;20198;-86
2023/12/02 01:12:05;;;;;;;23.83;13.30;;;;;;;;;;6247681;22;20173;-86
2023/12/02 01:14:34;;;;;;;25.30;16.17;;;;;;;;;;6248313;22;20173;-87
2023/12/02 01:17:04;;;;;;;29.43;18.23;;;;;;;;;;6247588;22;20166;-86
2023/12/02 01:19:32;;;;;;;19.60;12.17;;;;;;;;;;6247313;22;20202;-86
2023/12/02 01:22:02;;;;;;;4.00;3.80;;;;;;;;;;6246918;22;20171;-86
2023/12/02 01:24:31;;;;;;;19.90;12.97;;;;;;;;;;6248362;23;20173;-86
2023/12/02 01:26:59;;;;;;;19.23;12.97;;;;;;;;;;6247977;22;20177;-86
2023/12/02 01:29:28;;;;;;;17.70;11.20;;;;;;;;;;6247125;22;20197;-86
2023/12/02 01:31:56;;;;;;;12.03;6.67;;;;;;;;;;6247884;22;20248;-86
2023/12/02 01:34:26;;;;;;;8.53;7.53;;;;;;;;;;6247276;23;20190;-86
2023/12/02 01:36:54;;;;;;;27.83;17.47;;;;;;;;;;6248155;23;20181;-86
2023/12/02 01:39:23;;;;;;;31.93;20.20;;;;;;;;;;6247460;22;20254;-86
2023/12/02 01:41:51;;;;;;;33.83;20.17;;;;;;;;;;6247565;22;20188;-86
2023/12/02 01:44:20;;;;;;;31.43;18.37;;;;;;;;;;6248139;22;20211;-86
2023/12/02 01:46:48;;;;;;;24.33;15.33;;;;;;;;;;6247534;22;20178;-86
2023/12/02 01:49:17;;;;;;;37.70;22.27;;;;;;;;;;6247646;22;20181;-86
2023/12/02 01:51:47;;;;;;;39.20;24.47;;;;;;;;;;6247739;22;20170;-86
2023/12/02 01:54:17;;;;;;;36.43;23.77;;;;;;;;;;6247568;22;20165;-85
2023/12/02 01:56:45;;;;;;;26.27;14.63;;;;;;;;;;6248551;22;20268;-86
2023/12/02 01:59:14;;;;;;;33.57;18.33;;;;;;;;;;6247707;22;20166;-86
2023/12/02 02:01:43;;;;;;;19.93;9.83;;;;;;;;;;6248087;22;20180;-86
2023/12/02 02:04:11;;;;;;;34.20;20.90;;;;;;;;;;6247806;23;20177;-86
2023/12/02 02:06:40;;;;;;;28.17;17.03;;;;;;;;;;6248162;22;20204;-86
2023/12/02 02:09:09;;;;;;;36.63;20.30;;;;;;;;;;6247667;22;20198;-87
2023/12/02 02:11:38;;;;;;;32.17;18.87;;;;;;;;;;6246990;23;20177;-85
2023/12/02 02:14:07;;;;;;;29.47;17.47;;;;;;;;;;6247488;22;20252;-86
2023/12/02 02:16:36;;;;;;;27.27;15.93;;;;;;;;;;6247828;22;20412;-86
2023/12/02 02:19:04;;;;;;;12.03;6.27;;;;;;;;;;6246611;22;20236;-86
2023/12/02 02:21:34;;;;;;;20.40;10.43;;;;;;;;;;6247619;23;20424;-86
2023/12/02 02:24:02;;;;;;;9.57;6.20;;;;;;;;;;6247905;22;20185;-86
2023/12/02 02:26:31;;;;;;;35.53;19.93;;;;;;;;;;6247851;23;20178;-86
2023/12/02 02:28:59;;;;;;;25.53;17.20;;;;;;;;;;6246689;22;20169;-85
2023/12/02 02:31:28;;;;;;;3.13;3.00;;;;;;;;;;6247784;22;20172;-86
2023/12/02 02:33:56;;;;;;;1.83;1.83;;;;;;;;;;6247785;23;20197;-86
2023/12/02 02:36:24;;;;;;;2.40;2.30;;;;;;;;;;6248062;23;20169;-86
2023/12/02 02:38:54;;;;;;;3.23;3.10;;;;;;;;;;6246957;23;20210;-87
2023/12/02 02:41:23;;;;;;;8.33;6.43;;;;;;;;;;6247636;23;20200;-86
2023/12/02 02:43:51;;;;;;;12.13;9.07;;;;;;;;;;6247586;23;20174;-86
2023/12/02 02:46:20;;;;;;;7.37;3.43;;;;;;;;;;6248178;23;20180;-86
2023/12/02 02:48:48;;;;;;;6.67;6.03;;;;;;;;;;6246977;23;20170;-86
2023/12/02 02:51:17;;;;;;;3.47;3.27;;;;;;;;;;6247548;23;20193;-86
2023/12/02 02:53:45;;;;;;;8.03;5.80;;;;;;;;;;6246977;23;20231;-86
2023/12/02 02:56:15;;;;;;;3.93;3.63;;;;;;;;;;6247057;23;20180;-86
2023/12/02 02:58:43;;;;;;;1.97;1.87;;;;;;;;;;6246670;23;20175;-86
2023/12/02 03:01:12;;;;;;;7.43;6.83;;;;;;;;;;6246509;23;20182;-86
2023/12/02 03:03:40;;;;;;;13.37;7.93;;;;;;;;;;6247013;23;20184;-86
2023/12/02 03:06:09;;;;;;;6.60;4.70;;;;;;;;;;6248907;23;20189;-86
2023/12/02 03:08:37;;;;;;;8.53;5.03;;;;;;;;;;6248006;23;20397;-86
2023/12/02 03:11:06;;;;;;;1.10;1.10;;;;;;;;;;6247661;23;20201;-86
2023/12/02 03:13:36;;;;;;;8.63;6.10;;;;;;;;;;6248573;23;20183;-86
2023/12/02 03:16:05;;;;;;;30.17;18.80;;;;;;;;;;6248134;23;20188;-86
2023/12/02 03:18:33;;;;;;;39.17;20.57;;;;;;;;;;6247088;22;20180;-86
2023/12/02 03:21:02;;;;;;;38.27;20.67;;;;;;;;;;6247573;22;20178;-86
2023/12/02 03:23:30;;;;;;;34.13;16.53;;;;;;;;;;6246858;22;20170;-85
2023/12/02 03:25:59;;;;;;;17.83;12.00;;;;;;;;;;6247000;22;20180;-86
2023/12/02 03:28:27;;;;;;;35.63;18.57;;;;;;;;;;6246788;22;20200;-86
2023/12/02 03:30:57;;;;;;;6.17;5.20;;;;;;;;;;6246228;22;20251;-85
2023/12/02 03:33:25;;;;;;;24.80;12.60;;;;;;;;;;6246619;23;20420;-86
2023/12/02 03:35:54;;;;;;;35.27;20.13;;;;;;;;;;6246376;22;20446;-86
2023/12/02 03:38:22;;;;;;;6.07;5.47;;;;;;;;;;6245575;22;20432;-86
2023/12/02 03:40:51;;;;;;;11.63;7.20;;;;;;;;;;6246206;23;20162;-86
2023/12/02 03:43:19;;;;;;;29.73;15.97;;;;;;;;;;6246656;23;20174;-86
2023/12/02 03:45:47;;;;;;;33.37;19.97;;;;;;;;;;6246796;22;20187;-86
2023/12/02 03:48:17;;;;;;;38.20;19.93;;;;;;;;;;6245383;22;20170;-86
2023/12/02 03:50:46;;;;;;;25.67;14.47;;;;;;;;;;6245456;22;20490;-86
2023/12/02 03:53:14;;;;;;;35.43;17.60;;;;;;;;;;6245879;22;20185;-86
2023/12/02 03:55:43;;;;;;;38.60;21.73;;;;;;;;;;6245940;22;20406;-86
2023/12/02 03:58:11;;;;;;;39.63;20.87;;;;;;;;;;6245182;22;20192;-86
2023/12/02 04:00:41;;;;;;;30.10;13.67;;;;;;;;;;6245472;22;20184;-87
2023/12/02 04:03:09;;;;;;;31.23;16.70;;;;;;;;;;6246424;22;20229;-86
2023/12/02 04:05:39;;;;;;;36.77;18.30;;;;;;;;;;6246070;22;20264;-86
2023/12/02 04:08:08;;;;;;;35.47;18.77;;;;;;;;;;6245196;22;20178;-86
2023/12/02 04:10:36;;;;;;;40.43;22.37;;;;;;;;;;6245381;22;20468;-85
2023/12/02 04:13:05;;;;;;;29.57;18.87;;;;;;;;;;6246798;22;20173;-86
2023/12/02 04:15:34;;;;;;;7.90;5.17;;;;;;;;;;6245961;22;20181;-86
2023/12/02 04:18:03;;;;;;;1.73;1.73;;;;;;;;;;6245355;23;20253;-86
2023/12/02 04:20:32;;;;;;;2.63;2.53;;;;;;;;;;6245663;23;20181;-86
2023/12/02 04:23:02;;;;;;;38.73;20.60;;;;;;;;;;6245434;23;20419;-86
2023/12/02 04:25:30;;;;;;;42.17;22.23;;;;;;;;;;6245381;22;20233;-86
2023/12/02 04:27:58;;;;;;;8.23;5.83;;;;;;;;;;6244777;22;20420;-86
2023/12/02 04:30:27;;;;;;;2.43;2.30;;;;;;;;;;6245618;23;20186;-86
2023/12/02 04:32:55;;;;;;;32.23;16.53;;;;;;;;;;6245185;23;20189;-86
2023/12/02 04:35:24;;;;;;;36.03;18.17;;;;;;;;;;6245001;22;20427;-86
2023/12/02 04:37:52;;;;;;;1.60;1.57;;;;;;;;;;6244360;22;20417;-86
2023/12/02 04:40:22;;;;;;;1.13;1.13;;;;;;;;;;6244796;23;20491;-86
2023/12/02 04:42:51;;;;;;;35.67;20.77;;;;;;;;;;6245194;23;20413;-86
2023/12/02 04:45:19;;;;;;;31.47;17.20;;;;;;;;;;6245008;22;20239;-86
2023/12/02 04:47:47;;;;;;;33.73;18.93;;;;;;;;;;6244363;22;20400;-87
2023/12/02 04:50:16;;;;;;;38.83;20.87;;;;;;;;;;6244115;22;20408;-87
2023/12/02 04:52:44;;;;;;;18.47;11.03;;;;;;;;;;6244392;22;20174;-87
2023/12/02 04:55:13;;;;;;;26.43;13.67;;;;;;;;;;6245132;22;20404;-87
2023/12/02 04:57:43;;;;;;;5.80;4.27;;;;;;;;;;6244023;22;20180;-87
2023/12/02 05:00:14;;;;;;;3.37;3.07;;;;;;;;;;6244062;23;20192;-87
2023/12/02 05:02:44;;;;;;;1.13;1.13;;;;;;;;;;6244369;23;20181;-87
2023/12/02 05:05:13;;;;;;;6.50;5.67;;;;;;;;;;6244663;23;20261;-87
2023/12/02 05:07:42;;;;;;;1.60;1.60;;;;;;;;;;6243700;23;20400;-87
2023/12/02 05:10:11;;;;;;;34.80;19.90;;;;;;;;;;6243936;23;20405;-87
2023/12/02 05:12:40;;;;;;;28.80;16.43;;;;;;;;;;6244348;22;20192;-87
2023/12/02 05:15:10;;;;;;;29.13;15.50;;;;;;;;;;6244783;22;20401;-87
2023/12/02 05:17:39;;;;;;;38.47;21.53;;;;;;;;;;6243716;22;20397;-87
2023/12/02 05:20:09;;;;;;;23.77;13.97;;;;;;;;;;6243856;22;20223;-87
2023/12/02 05:22:37;;;;;;;9.73;8.47;;;;;;;;;;6244276;23;20466;-87
2023/12/02 05:25:07;;;;;;;8.20;5.37;;;;;;;;;;6244666;23;20407;-87
2023/12/02 05:27:35;;;;;;;32.53;18.70;;;;;;;;;;6243493;23;20177;-87
2023/12/02 05:30:04;;;;;;;31.90;19.53;;;;;;;;;;6244316;22;20638;-87
2023/12/02 05:32:34;;;;;;;27.50;17.13;;;;;;;;;;6243940;22;20432;-87
2023/12/02 05:35:02;;;;;;;41.20;21.27;;;;;;;;;;6244515;22;20471;-87
2023/12/02 05:37:31;;;;;;;29.83;16.20;;;;;;;;;;6243450;22;20181;-87
2023/12/02 05:39:59;;;;;;;17.60;11.33;;;;;;;;;;6243615;22;20436;-87
2023/12/02 05:42:27;;;;;;;24.87;11.63;;;;;;;;;;6244470;22;20415;-87
2023/12/02 05:44:56;;;;;;;37.07;19.03;;;;;;;;;;6245075;22;20405;-87
2023/12/02 05:47:24;;;;;;;40.83;20.97;;;;;;;;;;6243615;22;20436;-87
2023/12/02 05:49:54;;;;;;;40.17;19.97;;;;;;;;;;6244354;22;20401;-87
2023/12/02 05:52:23;;;;;;;42.63;23.67;;;;;;;;;;6244271;22;20479;-87
2023/12/02 05:54:51;;;;;;;30.33;18.17;;;;;;;;;;6244520;22;20437;-87
2023/12/02 05:57:20;;;;;;;25.97;15.97;;;;;;;;;;6244205;22;20416;-87
2023/12/02 05:59:50;;;;;;;40.17;20.50;;;;;;;;;;6244255;22;20495;-87
2023/12/02 06:02:18;;;;;;;31.03;19.70;;;;;;;;;;6243762;22;20396;-87
2023/12/02 06:04:47;;;;;;;6.33;4.27;;;;;;;;;;6244177;22;20424;-87
2023/12/02 06:07:17;;;;;;;36.53;21.17;;;;;;;;;;6243723;23;20498;-87
2023/12/02 06:09:45;;;;;;;45.90;24.97;;;;;;;;;;6243578;22;20407;-87
2023/12/02 06:12:14;;;;;;;46.57;24.03;;;;;;;;;;6244092;22;20245;-88
2023/12/02 06:14:42;;;;;;;39.10;22.10;;;;;;;;;;6243982;22;20491;-87
2023/12/02 06:17:11;;;;;;;16.03;9.73;;;;;;;;;;6243599;22;20453;-87
2023/12/02 06:19:39;;;;;;;37.77;21.20;;;;;;;;;;6243438;23;20396;-87
2023/12/02 06:22:07;;;;;;;37.43;21.73;;;;;;;;;;6244603;22;20188;-87
2023/12/02 06:24:37;;;;;;;30.77;16.93;;;;;;;;;;6243678;22;20450;-87
2023/12/02 06:27:06;;;;;;;30.23;16.10;;;;;;;;;;6243547;22;20396;-87
2023/12/02 06:29:35;;;;;;;37.73;21.57;;;;;;;;;;6243986;22;20260;-87
2023/12/02 06:32:03;;;;;;;34.03;18.27;;;;;;;;;;6243971;22;20436;-87
2023/12/02 06:34:32;;;;;;;30.90;18.93;;;;;;;;;;6243851;22;20505;-87
2023/12/02 06:37:00;;;;;;;34.90;22.97;;;;;;;;;;6243504;22;20423;-87
2023/12/02 06:39:29;;;;;;;32.83;20.83;;;;;;;;;;6244907;22;20440;-87
2023/12/02 06:41:59;;;;;;;32.33;19.07;;;;;;;;;;6246250;22;20403;-88
2023/12/02 06:44:27;;;;;;;15.83;8.47;;;;;;;;;;6245927;22;20450;-88
2023/12/02 06:46:56;;;;;;;31.07;19.90;;;;;;;;;;6245513;23;20458;-88
2023/12/02 06:49:24;;;;;;;25.10;15.10;;;;;;;;;;6245696;22;20491;-87
2023/12/02 06:51:53;;;;;;;36.67;21.83;;;;;;;;;;6245717;22;20431;-87
2023/12/02 06:54:21;;;;;;;33.00;20.17;;;;;;;;;;6246198;22;20419;-87
2023/12/02 06:56:50;;;;;;;33.23;18.20;;;;;;;;;;6245876;22;20438;-87
2023/12/02 06:59:19;;;;;;;38.50;21.90;;;;;;;;;;6245696;22;20177;-87
2023/12/02 07:01:48;;;;;;;24.57;15.90;;;;;;;;;;6246356;22;20404;-87
2023/12/02 07:04:16;;;;;;;34.80;20.23;;;;;;;;;;6245833;22;20446;-87
2023/12/02 07:06:45;;;;;;;27.97;14.43;;;;;;;;;;6245749;22;20413;-87
2023/12/02 07:09:13;;;;;;;19.77;14.00;;;;;;;;;;6246025;22;20396;-87
2023/12/02 07:11:42;;;;;;;34.93;21.47;;;;;;;;;;6246025;22;20189;-88
2023/12/02 07:14:10;;;;;;;22.83;14.47;;;;;;;;;;6245897;22;20416;-87
2023/12/02 07:16:40;;;;;;;16.53;10.63;;;;;;;;;;6245298;22;20404;-87
2023/12/02 07:19:08;;;;;;;23.07;14.47;;;;;;;;;;6245186;22;20169;-88
2023/12/02 07:21:37;;;;;;;25.73;16.73;;;;;;;;;;6246112;22;20178;-87
2023/12/02 07:24:06;;;;;;;32.13;18.53;;;;;;;;;;6246524;22;20201;-87
2023/12/02 07:26:35;;;;;;;34.40;21.37;;;;;;;;;;6245575;22;20507;-88
2023/12/02 07:29:04;;;;;;;37.67;21.83;;;;;;;;;;6246038;22;20408;-87
2023/12/02 07:31:32;;;;;;;38.03;20.70;;;;;;;;;;6246090;22;20236;-87
2023/12/02 07:34:02;;;;;;;19.67;14.30;;;;;;;;;;6246513;22;20190;-87
2023/12/02 07:36:30;;;;;;;35.03;20.63;;;;;;;;;;6246019;22;20181;-87
2023/12/02 07:38:59;;;;;;;30.27;16.73;;;;;;;;;;6245399;22;20440;-87
2023/12/02 07:41:27;;;;;;;22.23;13.27;;;;;;;;;;6246131;22;20169;-88
2023/12/02 07:43:55;;;;;;;27.53;15.67;;;;;;;;;;6246074;22;20196;-87
2023/12/02 07:46:24;;;;;;;27.63;16.07;;;;;;;;;;6244926;22;20169;-88
2023/12/02 07:48:54;;;;;;;31.10;17.60;;;;;;;;;;6245270;22;20447;-88
2023/12/02 07:51:24;;;;;;;26.93;16.80;;;;;;;;;;6245402;22;20182;-87
2023/12/02 07:53:52;;;;;;;17.97;9.40;;;;;;;;;;6245640;22;20255;-87
2023/12/02 07:56:21;;;;;;;5.20;4.70;;;;;;;;;;6245106;23;20431;-87
2023/12/02 07:58:49;;;;;;;23.17;13.93;;;;;;;;;;6245586;23;20188;-87
2023/12/02 08:01:18;;;;;;;35.33;20.60;;;;;;;;;;6245647;22;20177;-87
2023/12/02 08:03:46;;;;;;;35.33;17.43;;;;;;;;;;6245321;22;20178;-88
2023/12/02 08:06:15;;;;;;;28.90;15.90;;;;;;;;;;6245390;22;20170;-88
2023/12/02 08:08:45;;;;;;;36.27;21.30;;;;;;;;;;6245328;22;20184;-87
2023/12/02 08:11:15;;;;;;;28.50;19.50;;;;;;;;;;6245666;22;20177;-87
2023/12/02 08:13:44;;;;;;;35.63;19.97;;;;;;;;;;6245312;22;20181;-87
2023/12/02 08:16:13;;;;;;;21.40;13.57;;;;;;;;;;6245074;22;20188;-87
2023/12/02 08:18:41;;;;;;;29.03;18.37;;;;;;;;;;6244851;22;20232;-87
2023/12/02 08:21:10;;;;;;;40.00;23.10;;;;;;;;;;6245202;22;20170;-87
2023/12/02 08:23:38;;;;;;;37.17;19.23;;;;;;;;;;6244797;22;20171;-87
2023/12/02 08:26:09;;;;;;;7.77;6.30;;;;;;;;;;6244585;22;20173;-87
2023/12/02 08:28:37;;;;;;;14.63;7.73;;;;;;;;;;6244748;23;20177;-87
2023/12/02 08:31:06;;;;;;;37.83;22.87;;;;;;;;;;6244937;23;20177;-88
2023/12/02 08:33:34;;;;;;;34.97;21.43;;;;;;;;;;6244700;22;20202;-88
2023/12/02 08:36:03;;;;;;;36.60;21.57;;;;;;;;;;6244918;22;20251;-87
2023/12/02 08:38:31;;;;;;;20.33;12.57;;;;;;;;;;6244302;22;20461;-87
2023/12/02 08:41:02;;;;;;;36.50;22.47;;;;;;;;;;6244277;22;20216;-87
2023/12/02 08:43:31;;;;;;;23.47;14.90;;;;;;;;;;6244685;22;20173;-88
2023/12/02 08:46:00;;;;;;;35.40;20.67;;;;;;;;;;6244705;22;20181;-88
2023/12/02 08:48:28;;;;;;;46.90;26.07;;;;;;;;;;6244579;22;20166;-87
2023/12/02 08:50:57;;;;;;;39.87;21.83;;;;;;;;;;6245553;22;20201;-87
2023/12/02 08:53:25;;;;;;;22.33;14.27;;;;;;;;;;6245599;22;20189;-87
2023/12/02 08:55:54;;;;;;;39.07;20.57;;;;;;;;;;6244357;22;20245;-87
2023/12/02 08:58:22;;;;;;;31.63;19.73;;;;;;;;;;6244392;22;20177;-88
2023/12/02 09:00:52;;;;;;;36.53;20.87;;;;;;;;;;6244772;22;20181;-87
2023/12/02 09:03:23;;;;;;;30.90;17.17;;;;;;;;;;6244507;22;20230;-87
2023/12/02 09:05:55;;;;;;;36.60;22.73;;;;;;;;;;6243893;22;20173;-87
2023/12/02 09:08:24;;;;;;;39.27;23.17;;;;;;;;;;6245237;22;20178;-87
2023/12/02 09:10:52;;;;;;;42.93;24.37;;;;;;;;;;6244293;22;20174;-87
2023/12/02 09:13:39;;;;;;;28.03;16.10;;;;;;;;;;6244443;22;20194;-87
2023/12/02 09:16:09;;;;;;;37.17;20.40;;;;;;;;;;6244498;22;20185;-87
2023/12/02 09:18:38;;;;;;;32.93;20.97;;;;;;;;;;6244053;22;20268;-87
2023/12/02 09:21:27;;;;;;;34.90;19.80;;;;;;;;;;6244638;22;20178;-87
2023/12/02 09:23:55;;;;;;;29.73;12.53;;;;;;;;;;6244654;22;20169;-87
2023/12/02 09:26:26;;;;;;;35.60;19.33;;;;;;;;;;6244376;22;20174;-88
2023/12/02 09:28:55;;;;;;;32.73;20.63;;;;;;;;;;6244428;22;20169;-87
2023/12/02 09:31:25;;;;;;;47.10;24.60;;;;;;;;;;6244585;22;20178;-87
2023/12/02 09:33:57;;;;;;;32.83;18.97;;;;;;;;;;6243805;22;20196;-87
2023/12/02 09:36:32;;;;;;;42.83;26.40;;;;;;;;;;6244531;22;20177;-87
2023/12/02 09:39:21;;;;;;;40.33;24.03;;;;;;;;;;6244618;22;20200;-87
2023/12/02 09:41:51;;;;;;;59.77;32.90;;;;;;;;;;6244264;22;20237;-87
2023/12/02 09:44:24;;;;;;;42.80;27.67;;;;;;;;;;6244489;22;20170;-87
2023/12/02 09:46:59;;;;;;;40.40;24.37;;;;;;;;;;6243293;22;20174;-88
2023/12/02 09:49:33;;;;;;;25.07;12.53;;;;;;;;;;6245230;22;20207;-87
2023/12/02 09:52:12;;;;;;;3.30;3.03;;;;;;;;;;6244966;22;20269;-87
2023/12/02 09:54:45;;;;;;;13.97;9.20;;;;;;;;;;6244922;23;20307;-87
2023/12/02 09:57:29;;;;;;;6.40;5.80;;;;;;;;;;6244756;23;20178;-87
2023/12/02 10:00:04;;;;;;;20.53;9.83;;;;;;;;;;6244381;23;20208;-87
2023/12/02 10:02:44;;;;;;;35.50;19.70;;;;;;;;;;6244570;23;20173;-87
2023/12/02 10:05:13;;;;;;;16.57;12.27;;;;;;;;;;6244948;22;20170;-86
2023/12/02 10:07:49;;;;;;;28.63;17.83;;;;;;;;;;6246130;22;20173;-86
2023/12/02 10:10:21;;;;;;;19.43;11.00;;;;;;;;;;6245175;22;20408;-86
2023/12/02 10:12:57;;;;;;;24.57;15.13;;;;;;;;;;6245806;22;20173;-86
2023/12/02 10:15:29;;;;;;;38.07;21.23;;;;;;;;;;6245073;22;20167;-86
2023/12/02 10:18:01;;;;;;;27.23;17.23;;;;;;;;;;6244949;23;20170;-87
2023/12/02 10:20:30;;;;;;;40.40;22.77;;;;;;;;;;6245278;22;20212;-86
2023/12/02 10:22:59;;;;;;;25.00;16.70;;;;;;;;;;6244621;22;20178;-86
2023/12/02 10:25:34;;;;;;;4.63;3.40;;;;;;;;;;6243872;22;20192;-87
2023/12/02 10:28:11;;;;;;;10.13;7.73;;;;;;;;;;6243389;23;20208;-87
2023/12/02 10:30:45;;;;;;;4.30;4.10;;;;;;;;;;6244920;23;20182;-87
2023/12/02 10:33:19;;;;;;;0.90;0.90;;;;;;;;;;6243273;23;20194;-87
2023/12/02 10:35:49;;;;;;;8.20;4.63;;;;;;;;;;6243036;23;20212;-87
2023/12/02 10:38:22;;;;;;;1.47;1.40;;;;;;;;;;6243622;23;20206;-87
2023/12/02 10:40:58;;;;;;;10.30;5.00;;;;;;;;;;6243920;23;20190;-88
2023/12/02 10:43:31;;;;;;;9.47;6.53;;;;;;;;;;6242684;23;20180;-87
2023/12/02 10:46:00;;;;;;;27.27;15.43;;;;;;;;;;6243322;23;20205;-87
2023/12/02 10:48:30;;;;;;;10.93;5.63;;;;;;;;;;6243799;22;20176;-87
2023/12/02 10:50:59;;;;;;;15.43;8.40;;;;;;;;;;6244084;23;20184;-87
2023/12/02 10:53:28;;;;;;;23.57;14.00;;;;;;;;;;6243561;23;20168;-88
2023/12/02 10:56:00;;;;;;;13.37;8.47;;;;;;;;;;6244145;22;20188;-86
2023/12/02 10:58:30;;;;;;;8.07;4.00;;;;;;;;;;6245199;23;20178;-85
2023/12/02 11:01:00;;;;;;;3.87;3.57;;;;;;;;;;6244538;23;20171;-87
2023/12/02 11:03:36;;;;;;;1.57;1.57;;;;;;;;;;6244567;23;20176;-86
2023/12/02 11:06:06;;;;;;;4.40;4.10;;;;;;;;;;6244605;23;20181;-87
2023/12/02 11:08:46;;;;;;;3.87;2.50;;;;;;;;;;6243730;23;20226;-87
2023/12/02 11:11:20;;;;;;;2.60;2.50;;;;;;;;;;6244901;23;20210;-87
2023/12/02 11:13:49;;;;;;;6.13;4.00;;;;;;;;;;6243954;23;20200;-87
2023/12/02 11:16:22;;;;;;;9.47;8.53;;;;;;;;;;6243944;23;20184;-87
2023/12/02 11:19:01;;;;;;;8.10;5.80;;;;;;;;;;6244683;23;20259;-87
2023/12/02 11:21:40;;;;;;;4.90;4.50;;;;;;;;;;6244614;23;20177;-85
2023/12/02 11:24:17;;;;;;;4.00;3.67;;;;;;;;;;6243607;23;20244;-84
2023/12/02 11:26:53;;;;;;;7.10;6.70;;;;;;;;;;6245007;23;20185;-85
2023/12/02 11:29:26;;;;;;;0.90;0.90;;;;;;;;;;6245857;23;20189;-85
2023/12/02 11:32:05;;;;;;;8.40;7.83;;;;;;;;;;6246111;23;20173;-84
2023/12/02 11:34:41;;;;;;;4.60;4.27;;;;;;;;;;6245538;23;20185;-85
2023/12/02 11:37:14;;;;;;;3.17;3.07;;;;;;;;;;6246043;22;20185;-85
2023/12/02 11:39:47;;;;;;;2.43;2.27;;;;;;;;;;6245809;23;20224;-87
2023/12/02 11:42:18;;;;;;;1.27;1.27;;;;;;;;;;6246662;23;20180;-87
2023/12/02 11:44:55;;;;;;;11.07;7.07;;;;;;;;;;6246005;22;20181;-85
2023/12/02 11:47:28;;;;;;;1.43;1.43;;;;;;;;;;6246188;23;20178;-85
2023/12/02 11:50:02;;;;;;;2.37;2.13;;;;;;;;;;6245636;23;20184;-85
2023/12/02 11:52:34;;;;;;;0.80;0.80;;;;;;;;;;6245850;23;20178;-87
2023/12/02 11:55:08;;;;;;;1.40;1.40;;;;;;;;;;6244749;23;20250;-85
2023/12/02 11:57:42;;;;;;;3.30;1.77;;;;;;;;;;6245973;23;20180;-85
2023/12/02 12:00:18;;;;;;;1.77;1.67;;;;;;;;;;6245807;23;20181;-85
2023/12/02 12:03:01;;;;;;;2.30;2.20;;;;;;;;;;6246747;23;20177;-84
2023/12/02 12:05:38;;;;;;;2.90;2.70;;;;;;;;;;6246884;23;20170;-84
2023/12/02 12:08:10;;;;;;;1.97;1.87;;;;;;;;;;6245796;23;20199;-85
2023/12/02 12:10:39;;;;;;;5.37;3.07;;;;;;;;;;6246308;23;20177;-85
2023/12/02 12:13:09;;;;;;;3.40;3.20;;;;;;;;;;6246596;23;20179;-85
2023/12/02 12:15:38;;;;;;;2.33;2.27;;;;;;;;;;6244848;23;20185;-86
2023/12/02 12:18:08;;;;;;;2.57;2.37;;;;;;;;;;6246394;22;20369;-85
2023/12/02 12:20:38;;;;;;;2.03;1.93;;;;;;;;;;6246205;23;20170;-85
2023/12/02 12:23:08;;;;;;;2.33;1.60;;;;;;;;;;6246314;23;20204;-85
2023/12/02 12:25:37;;;;;;;7.90;4.90;;;;;;;;;;6245736;23;20173;-85
2023/12/02 12:28:06;;;;;;;3.47;3.27;;;;;;;;;;6246932;23;20182;-85
2023/12/02 12:30:44;;;;;;;2.20;2.10;;;;;;;;;;6247349;23;20177;-85
2023/12/02 12:33:15;;;;;;;5.13;4.93;;;;;;;;;;6245969;23;20228;-86
2023/12/02 12:35:45;;;;;;;2.27;2.07;;;;;;;;;;6245730;23;20220;-86
2023/12/02 12:38:13;;;;;;;1.43;1.33;;;;;;;;;;6245320;23;20197;-86
2023/12/02 12:40:43;;;;;;;3.60;2.10;;;;;;;;;;6245639;23;20181;-86
2023/12/02 12:43:12;;;;;;;6.37;4.30;;;;;;;;;;6244874;23;20262;-86
2023/12/02 12:45:41;;;;;;;2.27;2.07;;;;;;;;;;6244040;23;20166;-87
2023/12/02 12:48:11;;;;;;;2.27;2.07;;;;;;;;;;6245495;23;20181;-87
2023/12/02 12:50:43;;;;;;;3.10;2.87;;;;;;;;;;6245024;23;20252;-87
2023/12/02 12:53:13;;;;;;;7.27;4.40;;;;;;;;;;6245345;23;20170;-87
2023/12/02 12:55:44;;;;;;;1.97;1.87;;;;;;;;;;6244334;23;20207;-87
2023/12/02 12:58:16;;;;;;;4.03;3.07;;;;;;;;;;6245685;23;20173;-86
2023/12/02 13:00:46;;;;;;;2.93;2.63;;;;;;;;;;6245101;23;20253;-86
2023/12/02 13:03:29;;;;;;;3.37;3.07;;;;;;;;;;6244754;23;20170;-86
2023/12/02 13:06:05;;;;;;;1.90;1.80;;;;;;;;;;6244902;23;20165;-86
2023/12/02 13:08:39;;;;;;;3.23;2.93;;;;;;;;;;6245512;23;20174;-86
2023/12/02 13:11:08;;;;;;;1.60;1.50;;;;;;;;;;6245525;23;20182;-86
2023/12/02 13:13:54;;;;;;;1.93;1.80;;;;;;;;;;6245096;23;20200;-86
2023/12/02 13:16:23;;;;;;;3.83;3.43;;;;;;;;;;6244663;23;20193;-86
2023/12/02 13:18:52;;;;;;;3.20;2.57;;;;;;;;;;6244321;23;20189;-86
2023/12/02 13:21:21;;;;;;;1.70;1.60;;;;;;;;;;6245427;23;20176;-85
2023/12/02 13:23:54;;;;;;;2.73;2.10;;;;;;;;;;6244515;23;20175;-86
2023/12/02 13:26:25;;;;;;;1.37;1.33;;;;;;;;;;6245632;23;20347;-84
2023/12/02 13:28:57;;;;;;;3.13;2.90;;;;;;;;;;6249340;23;20234;-85
2023/12/02 13:31:27;;;;;;;4.03;3.10;;;;;;;;;;6244060;23;20170;-84
2023/12/02 13:34:01;;;;;;;2.83;2.37;;;;;;;;;;6243189;23;20186;-84
2023/12/02 13:36:31;;;;;;;3.90;1.60;;;;;;;;;;6243595;23;20197;-84
2023/12/02 13:39:04;;;;;;;1.60;1.50;;;;;;;;;;6243515;23;20283;-84
2023/12/02 13:41:46;;;;;;;2.77;2.57;;;;;;;;;;6243732;23;20264;-83
2023/12/02 13:44:17;;;;;;;0.80;0.80;;;;;;;;;;6243491;23;20181;-84
2023/12/02 13:47:06;;;;;;;0.90;0.90;;;;;;;;;;6243627;23;20219;-84
2023/12/02 13:49:39;;;;;;;0.90;0.90;;;;;;;;;;6243362;23;20182;-84
2023/12/02 13:52:15;;;;;;;1.13;1.10;;;;;;;;;;6243377;23;20252;-84
2023/12/02 13:54:54;;;;;;;1.37;1.37;;;;;;;;;;6242859;23;20173;-84
2023/12/02 13:57:29;;;;;;;0.87;0.87;;;;;;;;;;6243904;23;20169;-84
2023/12/02 14:00:00;;;;;;;1.83;1.73;;;;;;;;;;6243854;23;20208;-83
2023/12/02 14:02:38;;;;;;;0.70;0.70;;;;;;;;;;6243337;23;20181;-84
2023/12/02 14:05:15;;;;;;;0.80;0.80;;;;;;;;;;6244407;23;20165;-86
2023/12/02 14:07:47;;;;;;;0.80;0.80;;;;;;;;;;6247178;23;20184;-85
2023/12/02 14:10:18;;;;;;;0.80;0.80;;;;;;;;;;6245547;23;20177;-84
2023/12/02 14:13:04;;;;;;;0.83;0.83;;;;;;;;;;6246503;23;20178;-84
2023/12/02 14:15:42;;;;;;;0.90;0.90;;;;;;;;;;6248257;23;20186;-85
2023/12/02 14:18:33;;;;;;;1.00;1.00;;;;;;;;;;6248251;23;20264;-84
2023/12/02 14:21:05;;;;;;;1.53;1.53;;;;;;;;;;6247922;23;20176;-84
2023/12/02 14:23:44;;;;;;;0.80;0.80;;;;;;;;;;6248710;22;20192;-85
2023/12/02 14:26:27;;;;;;;2.30;2.20;;;;;;;;;;6247534;23;20196;-85
2023/12/02 14:29:06;;;;;;;0.80;0.80;;;;;;;;;;6243126;23;20176;-86
2023/12/02 14:31:43;;;;;;;0.73;0.73;;;;;;;;;;6245360;23;20173;-86
2023/12/02 14:34:40;;;;;;;1.00;1.00;;;;;;;;;;6243282;23;20200;-86
2023/12/02 14:37:21;;;;;;;0.80;0.80;;;;;;;;;;6243918;23;20193;-86
2023/12/02 14:40:06;;;;;;;1.07;1.07;;;;;;;;;;6243925;23;20197;-85
2023/12/02 14:42:37;;;;;;;0.80;0.80;;;;;;;;;;6241464;23;20181;-85
2023/12/02 14:45:09;;;;;;;1.33;1.00;;;;;;;;;;6243149;23;20170;-84
2023/12/02 14:47:39;;;;;;;0.80;0.80;;;;;;;;;;6244009;23;20172;-84
2023/12/02 14:50:09;;;;;;;0.80;0.80;;;;;;;;;;6244646;23;20173;-83